sensor_id;sensor_type;location;lat;lon;timestamp;pressure;altitude;pressure_sealevel;temperature;humidity
25944;BME280;13742;49.306;8.636;2023-02-22T00:00:37;100445.73;;;7.47;78.16
25944;BME280;13742;49.306;8.636;2023-02-22T00:01:35;100440.72;;;7.46;78.58
25944;BME280;13742;49.306;8.636;2023-02-22T00:02:33;100443.75;;;7.46;78.26
25944;BME280;13742;49.306;8.636;2023-02-22T00:03:32;100439.36;;;7.45;78.38
25944;BME280;13742;49.306;8.636;2023-02-22T00:04:34;100439.39;;;7.45;78.31
25944;BME280;13742;49.306;8.636;2023-02-22T00:05:32;100437.20;;;7.46;78.90
25944;BME280;13742;49.306;8.636;2023-02-22T00:06:32;100437.86;;;7.46;79.11
25944;BME280;13742;49.306;8.636;2023-02-22T00:07:32;100437.58;;;7.45;79.10
25944;BME280;13742;49.306;8.636;2023-02-22T00:08:33;100435.89;;;7.46;79.43
25944;BME280;13742;49.306;8.636;2023-02-22T00:09:32;100432.58;;;7.46;80.02
25944;BME280;13742;49.306;8.636;2023-02-22T00:10:32;100434.77;;;7.45;79.71
25944;BME280;13742;49.306;8.636;2023-02-22T00:11:34;100436.03;;;7.44;79.58
25944;BME280;13742;49.306;8.636;2023-02-22T00:12:32;100433.21;;;7.43;79.57
25944;BME280;13742;49.306;8.636;2023-02-22T00:13:32;100432.53;;;7.44;80.10
25944;BME280;13742;49.306;8.636;2023-02-22T00:14:32;100431.44;;;7.44;79.93
25944;BME280;13742;49.306;8.636;2023-02-22T00:15:32;100428.55;;;7.43;80.60
25944;BME280;13742;49.306;8.636;2023-02-22T00:16:32;100430.70;;;7.39;80.41
25944;BME280;13742;49.306;8.636;2023-02-22T00:17:33;100429.17;;;7.39;80.49
25944;BME280;13742;49.306;8.636;2023-02-22T00:18:32;100426.58;;;7.40;80.29
25944;BME280;13742;49.306;8.636;2023-02-22T00:19:33;100427.08;;;7.40;80.62
25944;BME280;13742;49.306;8.636;2023-02-22T00:20:32;100428.48;;;7.41;80.72
25944;BME280;13742;49.306;8.636;2023-02-22T00:21:32;100425.06;;;7.39;80.55
25944;BME280;13742;49.306;8.636;2023-02-22T00:22:32;100421.25;;;7.38;80.76
25944;BME280;13742;49.306;8.636;2023-02-22T00:23:32;100422.84;;;7.38;80.54
25944;BME280;13742;49.306;8.636;2023-02-22T00:24:32;100420.45;;;7.37;80.38
25944;BME280;13742;49.306;8.636;2023-02-22T00:25:32;100420.45;;;7.37;80.97
25944;BME280;13742;49.306;8.636;2023-02-22T00:26:32;100415.17;;;7.38;81.33
25944;BME280;13742;49.306;8.636;2023-02-22T00:27:32;100416.64;;;7.36;81.51
25944;BME280;13742;49.306;8.636;2023-02-22T00:28:32;100414.94;;;7.36;81.09
25944;BME280;13742;49.306;8.636;2023-02-22T00:29:33;100413.80;;;7.36;81.43
25944;BME280;13742;49.306;8.636;2023-02-22T00:30:32;100414.57;;;7.38;81.51
25944;BME280;13742;49.306;8.636;2023-02-22T00:31:35;100411.45;;;7.35;81.93
25944;BME280;13742;49.306;8.636;2023-02-22T00:32:32;100412.63;;;7.34;81.63
25944;BME280;13742;49.306;8.636;2023-02-22T00:33:32;100406.98;;;7.34;81.69
25944;BME280;13742;49.306;8.636;2023-02-22T00:34:32;100406.80;;;7.33;81.69
25944;BME280;13742;49.306;8.636;2023-02-22T00:35:32;100403.56;;;7.29;82.08
25944;BME280;13742;49.306;8.636;2023-02-22T00:36:32;100403.47;;;7.28;82.06
25944;BME280;13742;49.306;8.636;2023-02-22T00:37:32;100402.44;;;7.28;81.97
25944;BME280;13742;49.306;8.636;2023-02-22T00:38:32;100400.03;;;7.25;82.54
25944;BME280;13742;49.306;8.636;2023-02-22T00:39:32;100398.29;;;7.24;82.35
25944;BME280;13742;49.306;8.636;2023-02-22T00:40:32;100394.46;;;7.24;82.55
25944;BME280;13742;49.306;8.636;2023-02-22T00:41:32;100390.64;;;7.26;82.26
25944;BME280;13742;49.306;8.636;2023-02-22T00:42:32;100391.25;;;7.26;82.10
25944;BME280;13742;49.306;8.636;2023-02-22T00:43:32;100389.18;;;7.28;82.23
25944;BME280;13742;49.306;8.636;2023-02-22T00:44:32;100387.27;;;7.28;82.29
25944;BME280;13742;49.306;8.636;2023-02-22T00:45:32;100390.59;;;7.29;82.46
25944;BME280;13742;49.306;8.636;2023-02-22T00:46:32;100392.16;;;7.30;82.21
25944;BME280;13742;49.306;8.636;2023-02-22T00:47:32;100392.01;;;7.31;82.43
25944;BME280;13742;49.306;8.636;2023-02-22T00:48:32;100394.05;;;7.32;82.10
25944;BME280;13742;49.306;8.636;2023-02-22T00:49:32;100393.25;;;7.33;82.01
25944;BME280;13742;49.306;8.636;2023-02-22T00:50:32;100397.56;;;7.31;82.13
25944;BME280;13742;49.306;8.636;2023-02-22T00:51:32;100388.95;;;7.29;82.73
25944;BME280;13742;49.306;8.636;2023-02-22T00:52:32;100395.66;;;7.28;82.54
25944;BME280;13742;49.306;8.636;2023-02-22T00:53:32;100392.02;;;7.26;83.09
25944;BME280;13742;49.306;8.636;2023-02-22T00:54:32;100392.27;;;7.27;82.40
25944;BME280;13742;49.306;8.636;2023-02-22T00:55:33;100389.83;;;7.27;82.53
25944;BME280;13742;49.306;8.636;2023-02-22T00:56:33;100391.41;;;7.28;82.57
25944;BME280;13742;49.306;8.636;2023-02-22T00:57:34;100393.20;;;7.27;82.67
25944;BME280;13742;49.306;8.636;2023-02-22T00:58:32;100391.13;;;7.26;82.41
25944;BME280;13742;49.306;8.636;2023-02-22T00:59:32;100390.92;;;7.23;82.85
25944;BME280;13742;49.306;8.636;2023-02-22T01:00:33;100389.12;;;7.23;82.65
25944;BME280;13742;49.306;8.636;2023-02-22T01:01:32;100387.59;;;7.24;82.15
25944;BME280;13742;49.306;8.636;2023-02-22T01:02:32;100390.45;;;7.23;82.49
25944;BME280;13742;49.306;8.636;2023-02-22T01:03:32;100389.06;;;7.24;82.06
25944;BME280;13742;49.306;8.636;2023-02-22T01:04:32;100386.78;;;7.23;82.22
25944;BME280;13742;49.306;8.636;2023-02-22T01:05:32;100385.92;;;7.22;82.30
25944;BME280;13742;49.306;8.636;2023-02-22T01:06:33;100387.03;;;7.20;82.66
25944;BME280;13742;49.306;8.636;2023-02-22T01:07:32;100387.00;;;7.20;82.45
25944;BME280;13742;49.306;8.636;2023-02-22T01:08:32;100386.34;;;7.20;82.62
25944;BME280;13742;49.306;8.636;2023-02-22T01:09:32;100388.65;;;7.20;82.62
25944;BME280;13742;49.306;8.636;2023-02-22T01:10:32;100391.36;;;7.20;82.10
25944;BME280;13742;49.306;8.636;2023-02-22T01:11:32;100390.44;;;7.19;82.52
25944;BME280;13742;49.306;8.636;2023-02-22T01:12:32;100384.64;;;7.19;82.60
25944;BME280;13742;49.306;8.636;2023-02-22T01:13:33;100382.97;;;7.19;82.85
25944;BME280;13742;49.306;8.636;2023-02-22T01:14:32;100382.48;;;7.19;82.64
25944;BME280;13742;49.306;8.636;2023-02-22T01:15:32;100382.98;;;7.18;82.71
25944;BME280;13742;49.306;8.636;2023-02-22T01:16:32;100385.14;;;7.17;82.97
25944;BME280;13742;49.306;8.636;2023-02-22T01:17:32;100382.16;;;7.15;82.96
25944;BME280;13742;49.306;8.636;2023-02-22T01:18:32;100380.03;;;7.15;83.00
25944;BME280;13742;49.306;8.636;2023-02-22T01:19:32;100380.83;;;7.13;83.23
25944;BME280;13742;49.306;8.636;2023-02-22T01:20:32;100382.94;;;7.12;82.91
25944;BME280;13742;49.306;8.636;2023-02-22T01:21:32;100379.39;;;7.11;82.94
25944;BME280;13742;49.306;8.636;2023-02-22T01:22:32;100377.27;;;7.10;83.20
25944;BME280;13742;49.306;8.636;2023-02-22T01:23:32;100376.07;;;7.07;83.11
25944;BME280;13742;49.306;8.636;2023-02-22T01:24:32;100374.62;;;7.07;83.80
25944;BME280;13742;49.306;8.636;2023-02-22T01:25:32;100376.58;;;7.07;83.66
25944;BME280;13742;49.306;8.636;2023-02-22T01:26:32;100375.52;;;7.04;84.14
25944;BME280;13742;49.306;8.636;2023-02-22T01:27:32;100375.77;;;7.05;83.79
25944;BME280;13742;49.306;8.636;2023-02-22T01:28:32;100372.56;;;7.04;83.68
25944;BME280;13742;49.306;8.636;2023-02-22T01:29:32;100376.56;;;7.05;83.59
25944;BME280;13742;49.306;8.636;2023-02-22T01:30:32;100374.79;;;7.05;83.82
25944;BME280;13742;49.306;8.636;2023-02-22T01:31:32;100368.97;;;7.06;83.98
25944;BME280;13742;49.306;8.636;2023-02-22T01:32:33;100371.98;;;7.06;83.71
25944;BME280;13742;49.306;8.636;2023-02-22T01:33:32;100372.66;;;7.08;83.81
25944;BME280;13742;49.306;8.636;2023-02-22T01:34:32;100368.73;;;7.07;83.09
25944;BME280;13742;49.306;8.636;2023-02-22T01:35:33;100370.25;;;7.08;83.28
25944;BME280;13742;49.306;8.636;2023-02-22T01:36:32;100372.58;;;7.06;83.03
25944;BME280;13742;49.306;8.636;2023-02-22T01:37:32;100368.39;;;7.05;83.17
25944;BME280;13742;49.306;8.636;2023-02-22T01:38:33;100370.19;;;7.05;83.39
25944;BME280;13742;49.306;8.636;2023-02-22T01:39:32;100368.51;;;7.04;83.19
25944;BME280;13742;49.306;8.636;2023-02-22T01:40:32;100366.58;;;7.05;83.82
25944;BME280;13742;49.306;8.636;2023-02-22T01:41:32;100365.36;;;7.01;84.51
25944;BME280;13742;49.306;8.636;2023-02-22T01:42:32;100367.16;;;7.01;84.78
25944;BME280;13742;49.306;8.636;2023-02-22T01:43:32;100366.02;;;7.02;84.46
25944;BME280;13742;49.306;8.636;2023-02-22T01:44:35;100364.08;;;7.01;83.43
25944;BME280;13742;49.306;8.636;2023-02-22T01:45:37;100365.29;;;7.02;83.48
25944;BME280;13742;49.306;8.636;2023-02-22T01:46:32;100370.23;;;7.04;83.52
25944;BME280;13742;49.306;8.636;2023-02-22T01:47:32;100364.64;;;7.03;83.21
25944;BME280;13742;49.306;8.636;2023-02-22T01:48:42;100364.38;;;7.03;83.10
25944;BME280;13742;49.306;8.636;2023-02-22T01:49:33;100360.86;;;7.03;82.39
25944;BME280;13742;49.306;8.636;2023-02-22T01:50:32;100362.62;;;7.03;82.82
25944;BME280;13742;49.306;8.636;2023-02-22T01:51:37;100363.27;;;7.03;82.29
25944;BME280;13742;49.306;8.636;2023-02-22T01:52:32;100367.78;;;7.05;82.28
25944;BME280;13742;49.306;8.636;2023-02-22T01:53:33;100366.74;;;7.05;82.60
25944;BME280;13742;49.306;8.636;2023-02-22T01:54:36;100366.63;;;7.05;82.27
25944;BME280;13742;49.306;8.636;2023-02-22T01:55:32;100365.97;;;7.05;82.72
25944;BME280;13742;49.306;8.636;2023-02-22T01:56:32;100365.73;;;7.05;82.07
25944;BME280;13742;49.306;8.636;2023-02-22T01:57:33;100364.47;;;7.04;81.90
25944;BME280;13742;49.306;8.636;2023-02-22T01:58:32;100362.23;;;7.03;82.09
25944;BME280;13742;49.306;8.636;2023-02-22T01:59:33;100362.98;;;7.04;82.20
25944;BME280;13742;49.306;8.636;2023-02-22T02:00:32;100358.27;;;7.06;83.12
25944;BME280;13742;49.306;8.636;2023-02-22T02:01:32;100357.06;;;7.05;82.45
25944;BME280;13742;49.306;8.636;2023-02-22T02:02:32;100353.08;;;7.04;83.08
25944;BME280;13742;49.306;8.636;2023-02-22T02:03:32;100357.57;;;7.04;82.91
25944;BME280;13742;49.306;8.636;2023-02-22T02:04:32;100355.86;;;7.03;82.56
25944;BME280;13742;49.306;8.636;2023-02-22T02:05:32;100352.25;;;7.03;82.38
25944;BME280;13742;49.306;8.636;2023-02-22T02:06:32;100350.33;;;7.02;82.54
25944;BME280;13742;49.306;8.636;2023-02-22T02:07:31;100352.91;;;7.03;83.00
25944;BME280;13742;49.306;8.636;2023-02-22T02:08:40;100350.33;;;7.02;83.07
25944;BME280;13742;49.306;8.636;2023-02-22T02:10:33;100349.87;;;7.03;82.95
25944;BME280;13742;49.306;8.636;2023-02-22T02:11:31;100348.40;;;7.04;83.16
25944;BME280;13742;49.306;8.636;2023-02-22T02:12:33;100348.94;;;7.03;82.85
25944;BME280;13742;49.306;8.636;2023-02-22T02:13:32;100346.83;;;7.03;82.83
25944;BME280;13742;49.306;8.636;2023-02-22T02:14:32;100347.09;;;7.02;82.71
25944;BME280;13742;49.306;8.636;2023-02-22T02:15:32;100346.01;;;7.03;83.33
25944;BME280;13742;49.306;8.636;2023-02-22T02:16:37;100347.41;;;7.03;82.88
25944;BME280;13742;49.306;8.636;2023-02-22T02:17:33;100342.36;;;7.01;83.33
25944;BME280;13742;49.306;8.636;2023-02-22T02:18:31;100341.02;;;7.02;83.55
25944;BME280;13742;49.306;8.636;2023-02-22T02:24:37;100337.05;;;6.98;84.11
25944;BME280;13742;49.306;8.636;2023-02-22T02:28:43;100334.14;;;6.90;84.57
25944;BME280;13742;49.306;8.636;2023-02-22T02:29:40;100338.78;;;6.88;83.83
25944;BME280;13742;49.306;8.636;2023-02-22T02:30:38;100337.69;;;6.88;84.11
25944;BME280;13742;49.306;8.636;2023-02-22T02:33:32;100331.45;;;6.85;84.72
25944;BME280;13742;49.306;8.636;2023-02-22T02:34:33;100331.05;;;6.85;84.88
25944;BME280;13742;49.306;8.636;2023-02-22T02:37:16;100330.29;;;6.82;85.16
25944;BME280;13742;49.306;8.636;2023-02-22T02:37:36;100326.59;;;6.81;84.73
25944;BME280;13742;49.306;8.636;2023-02-22T02:39:36;100327.31;;;6.77;84.36
25944;BME280;13742;49.306;8.636;2023-02-22T02:41:35;100325.66;;;6.76;84.05
25944;BME280;13742;49.306;8.636;2023-02-22T02:42:33;100323.70;;;6.76;84.10
25944;BME280;13742;49.306;8.636;2023-02-22T02:44:33;100328.86;;;6.76;83.93
25944;BME280;13742;49.306;8.636;2023-02-22T02:45:37;100323.46;;;6.77;84.51
25944;BME280;13742;49.306;8.636;2023-02-22T02:46:36;100324.78;;;6.78;84.35
25944;BME280;13742;49.306;8.636;2023-02-22T02:47:34;100323.07;;;6.76;83.93
25944;BME280;13742;49.306;8.636;2023-02-22T02:48:32;100323.11;;;6.77;84.66
25944;BME280;13742;49.306;8.636;2023-02-22T02:49:36;100326.88;;;6.77;83.92
25944;BME280;13742;49.306;8.636;2023-02-22T02:51:42;100321.47;;;6.75;84.23
25944;BME280;13742;49.306;8.636;2023-02-22T02:52:32;100323.94;;;6.75;83.96
25944;BME280;13742;49.306;8.636;2023-02-22T02:53:33;100324.16;;;6.76;85.07
25944;BME280;13742;49.306;8.636;2023-02-22T02:54:32;100326.00;;;6.74;84.03
25944;BME280;13742;49.306;8.636;2023-02-22T02:55:31;100321.77;;;6.75;84.94
25944;BME280;13742;49.306;8.636;2023-02-22T02:56:32;100324.02;;;6.76;84.64
25944;BME280;13742;49.306;8.636;2023-02-22T02:57:31;100323.30;;;6.75;84.53
25944;BME280;13742;49.306;8.636;2023-02-22T02:58:32;100322.32;;;6.75;84.43
25944;BME280;13742;49.306;8.636;2023-02-22T02:59:33;100323.92;;;6.74;84.37
25944;BME280;13742;49.306;8.636;2023-02-22T03:00:38;100323.88;;;6.70;84.51
25944;BME280;13742;49.306;8.636;2023-02-22T03:06:35;100318.75;;;6.21;84.32
25944;BME280;13742;49.306;8.636;2023-02-22T03:10:36;100319.34;;;6.11;84.43
25944;BME280;13742;49.306;8.636;2023-02-22T03:11:39;100321.52;;;6.11;83.75
25944;BME280;13742;49.306;8.636;2023-02-22T03:12:37;100319.44;;;6.08;82.90
25944;BME280;13742;49.306;8.636;2023-02-22T03:16:34;100316.98;;;5.73;83.52
25944;BME280;13742;49.306;8.636;2023-02-22T03:19:36;100316.78;;;5.56;83.82
25944;BME280;13742;49.306;8.636;2023-02-22T03:22:39;100316.86;;;5.46;83.80
25944;BME280;13742;49.306;8.636;2023-02-22T03:24:33;100315.00;;;5.50;83.55
25944;BME280;13742;49.306;8.636;2023-02-22T03:25:34;100315.53;;;5.47;82.94
25944;BME280;13742;49.306;8.636;2023-02-22T03:28:31;100314.33;;;5.40;83.55
25944;BME280;13742;49.306;8.636;2023-02-22T03:29:35;100310.18;;;5.37;83.29
25944;BME280;13742;49.306;8.636;2023-02-22T03:30:33;100313.02;;;5.38;83.07
25944;BME280;13742;49.306;8.636;2023-02-22T03:31:33;100307.55;;;5.36;82.94
25944;BME280;13742;49.306;8.636;2023-02-22T03:32:34;100310.34;;;5.37;82.91
25944;BME280;13742;49.306;8.636;2023-02-22T03:34:36;100305.06;;;5.34;82.78
25944;BME280;13742;49.306;8.636;2023-02-22T03:35:32;100305.50;;;5.36;82.69
25944;BME280;13742;49.306;8.636;2023-02-22T03:36:36;100300.88;;;5.35;82.48
25944;BME280;13742;49.306;8.636;2023-02-22T03:37:34;100303.81;;;5.36;82.46
25944;BME280;13742;49.306;8.636;2023-02-22T03:38:32;100306.02;;;5.38;82.49
25944;BME280;13742;49.306;8.636;2023-02-22T03:39:32;100307.38;;;5.39;82.52
25944;BME280;13742;49.306;8.636;2023-02-22T03:40:50;100309.00;;;5.41;82.49
25944;BME280;13742;49.306;8.636;2023-02-22T03:41:32;100308.84;;;5.40;81.99
25944;BME280;13742;49.306;8.636;2023-02-22T03:42:32;100307.92;;;5.39;81.86
25944;BME280;13742;49.306;8.636;2023-02-22T03:43:33;100307.27;;;5.39;81.75
25944;BME280;13742;49.306;8.636;2023-02-22T03:44:31;100308.77;;;5.41;81.82
25944;BME280;13742;49.306;8.636;2023-02-22T03:45:31;100306.98;;;5.42;81.66
25944;BME280;13742;49.306;8.636;2023-02-22T03:46:31;100309.00;;;5.45;82.42
25944;BME280;13742;49.306;8.636;2023-02-22T03:47:40;100308.63;;;5.44;82.99
25944;BME280;13742;49.306;8.636;2023-02-22T03:48:36;100306.10;;;5.45;82.87
25944;BME280;13742;49.306;8.636;2023-02-22T03:49:33;100309.72;;;5.45;83.04
25944;BME280;13742;49.306;8.636;2023-02-22T03:50:33;100304.98;;;5.47;82.90
25944;BME280;13742;49.306;8.636;2023-02-22T03:51:31;100305.97;;;5.47;82.68
25944;BME280;13742;49.306;8.636;2023-02-22T03:52:34;100307.34;;;5.47;82.48
25944;BME280;13742;49.306;8.636;2023-02-22T03:53:32;100308.52;;;5.48;82.37
25944;BME280;13742;49.306;8.636;2023-02-22T03:54:31;100306.85;;;5.47;82.41
25944;BME280;13742;49.306;8.636;2023-02-22T03:55:32;100306.16;;;5.45;82.71
25944;BME280;13742;49.306;8.636;2023-02-22T03:56:38;100307.52;;;5.45;82.47
25944;BME280;13742;49.306;8.636;2023-02-22T03:57:33;100307.36;;;5.45;82.28
25944;BME280;13742;49.306;8.636;2023-02-22T03:58:31;100307.03;;;5.45;82.11
25944;BME280;13742;49.306;8.636;2023-02-22T03:59:31;100305.61;;;5.46;82.39
25944;BME280;13742;49.306;8.636;2023-02-22T04:00:32;100301.33;;;5.47;82.33
25944;BME280;13742;49.306;8.636;2023-02-22T04:01:32;100304.02;;;5.47;82.54
25944;BME280;13742;49.306;8.636;2023-02-22T04:02:31;100300.37;;;5.46;82.43
25944;BME280;13742;49.306;8.636;2023-02-22T04:03:31;100301.05;;;5.47;82.48
25944;BME280;13742;49.306;8.636;2023-02-22T04:04:31;100302.88;;;5.47;82.66
25944;BME280;13742;49.306;8.636;2023-02-22T04:05:31;100303.51;;;5.47;82.48
25944;BME280;13742;49.306;8.636;2023-02-22T04:06:31;100304.97;;;5.45;82.14
25944;BME280;13742;49.306;8.636;2023-02-22T04:07:32;100305.75;;;5.47;82.36
25944;BME280;13742;49.306;8.636;2023-02-22T04:08:31;100306.59;;;5.46;82.11
25944;BME280;13742;49.306;8.636;2023-02-22T04:09:31;100309.33;;;5.46;82.54
25944;BME280;13742;49.306;8.636;2023-02-22T04:10:32;100304.72;;;5.46;82.28
25944;BME280;13742;49.306;8.636;2023-02-22T04:11:31;100305.95;;;5.45;82.21
25944;BME280;13742;49.306;8.636;2023-02-22T04:12:32;100307.33;;;5.48;82.29
25944;BME280;13742;49.306;8.636;2023-02-22T04:13:31;100309.66;;;5.48;82.45
25944;BME280;13742;49.306;8.636;2023-02-22T04:14:31;100309.09;;;5.46;82.27
25944;BME280;13742;49.306;8.636;2023-02-22T04:15:31;100309.59;;;5.46;82.63
25944;BME280;13742;49.306;8.636;2023-02-22T04:16:31;100308.93;;;5.46;82.55
25944;BME280;13742;49.306;8.636;2023-02-22T04:17:31;100310.62;;;5.46;82.68
25944;BME280;13742;49.306;8.636;2023-02-22T04:18:31;100308.90;;;5.45;82.52
25944;BME280;13742;49.306;8.636;2023-02-22T04:19:31;100311.44;;;5.46;82.74
25944;BME280;13742;49.306;8.636;2023-02-22T04:20:33;100311.14;;;5.44;82.88
25944;BME280;13742;49.306;8.636;2023-02-22T04:21:31;100315.33;;;5.45;83.47
25944;BME280;13742;49.306;8.636;2023-02-22T04:22:31;100312.44;;;5.46;84.48
25944;BME280;13742;49.306;8.636;2023-02-22T04:23:31;100314.99;;;5.46;84.58
25944;BME280;13742;49.306;8.636;2023-02-22T04:24:31;100317.55;;;5.47;84.74
25944;BME280;13742;49.306;8.636;2023-02-22T04:25:31;100312.95;;;5.47;84.62
25944;BME280;13742;49.306;8.636;2023-02-22T04:26:31;100312.19;;;5.47;84.78
25944;BME280;13742;49.306;8.636;2023-02-22T04:27:31;100314.58;;;5.48;85.14
25944;BME280;13742;49.306;8.636;2023-02-22T04:28:31;100314.50;;;5.47;84.55
25944;BME280;13742;49.306;8.636;2023-02-22T04:29:31;100317.25;;;5.49;84.76
25944;BME280;13742;49.306;8.636;2023-02-22T04:30:31;100315.02;;;5.48;84.89
25944;BME280;13742;49.306;8.636;2023-02-22T04:31:32;100313.83;;;5.48;84.47
25944;BME280;13742;49.306;8.636;2023-02-22T04:32:31;100316.55;;;5.48;84.11
25944;BME280;13742;49.306;8.636;2023-02-22T04:33:31;100313.14;;;5.49;86.37
25944;BME280;13742;49.306;8.636;2023-02-22T04:34:31;100311.70;;;5.51;86.45
25944;BME280;13742;49.306;8.636;2023-02-22T04:35:31;100312.48;;;5.51;87.70
25944;BME280;13742;49.306;8.636;2023-02-22T04:36:31;100311.91;;;5.53;87.83
25944;BME280;13742;49.306;8.636;2023-02-22T04:37:33;100317.24;;;5.54;87.61
25944;BME280;13742;49.306;8.636;2023-02-22T04:38:31;100310.06;;;5.56;88.41
25944;BME280;13742;49.306;8.636;2023-02-22T04:39:32;100311.52;;;5.56;88.92
25944;BME280;13742;49.306;8.636;2023-02-22T04:40:31;100313.33;;;5.56;88.95
25944;BME280;13742;49.306;8.636;2023-02-22T04:41:33;100313.09;;;5.57;89.80
25944;BME280;13742;49.306;8.636;2023-02-22T04:42:32;100314.45;;;5.59;90.12
25944;BME280;13742;49.306;8.636;2023-02-22T04:43:31;100310.85;;;5.57;90.00
25944;BME280;13742;49.306;8.636;2023-02-22T04:44:31;100310.62;;;5.60;89.95
25944;BME280;13742;49.306;8.636;2023-02-22T04:45:31;100312.08;;;5.59;89.81
25944;BME280;13742;49.306;8.636;2023-02-22T04:46:31;100311.20;;;5.59;89.95
25944;BME280;13742;49.306;8.636;2023-02-22T04:47:31;100312.03;;;5.59;89.85
25944;BME280;13742;49.306;8.636;2023-02-22T04:48:31;100310.91;;;5.58;90.02
25944;BME280;13742;49.306;8.636;2023-02-22T04:49:31;100308.33;;;5.58;89.72
25944;BME280;13742;49.306;8.636;2023-02-22T04:50:31;100303.79;;;5.58;89.53
25944;BME280;13742;49.306;8.636;2023-02-22T04:51:31;100304.16;;;5.61;90.19
25944;BME280;13742;49.306;8.636;2023-02-22T04:52:31;100299.40;;;5.61;90.09
25944;BME280;13742;49.306;8.636;2023-02-22T04:53:31;100301.90;;;5.63;90.41
25944;BME280;13742;49.306;8.636;2023-02-22T04:54:31;100299.21;;;5.64;89.92
25944;BME280;13742;49.306;8.636;2023-02-22T04:55:33;100294.94;;;5.64;90.11
25944;BME280;13742;49.306;8.636;2023-02-22T04:56:31;100298.50;;;5.66;90.31
25944;BME280;13742;49.306;8.636;2023-02-22T04:57:32;100295.38;;;5.67;89.73
25944;BME280;13742;49.306;8.636;2023-02-22T04:58:31;100295.30;;;5.66;89.77
25944;BME280;13742;49.306;8.636;2023-02-22T04:59:31;100291.98;;;5.68;90.40
25944;BME280;13742;49.306;8.636;2023-02-22T05:00:31;100291.77;;;5.68;90.17
25944;BME280;13742;49.306;8.636;2023-02-22T05:01:33;100294.23;;;5.71;90.78
25944;BME280;13742;49.306;8.636;2023-02-22T05:02:32;100292.36;;;5.69;89.98
25944;BME280;13742;49.306;8.636;2023-02-22T05:03:31;100296.03;;;5.68;89.53
25944;BME280;13742;49.306;8.636;2023-02-22T05:04:31;100295.94;;;5.70;89.59
25944;BME280;13742;49.306;8.636;2023-02-22T05:05:31;100297.61;;;5.68;90.01
25944;BME280;13742;49.306;8.636;2023-02-22T05:06:31;100296.29;;;5.68;89.68
25944;BME280;13742;49.306;8.636;2023-02-22T05:07:31;100296.42;;;5.67;89.26
25944;BME280;13742;49.306;8.636;2023-02-22T05:08:31;100297.17;;;5.67;90.05
25944;BME280;13742;49.306;8.636;2023-02-22T05:09:31;100298.92;;;5.67;89.54
25944;BME280;13742;49.306;8.636;2023-02-22T05:10:31;100300.41;;;5.67;89.40
25944;BME280;13742;49.306;8.636;2023-02-22T05:11:31;100301.94;;;5.67;89.92
25944;BME280;13742;49.306;8.636;2023-02-22T05:12:31;100302.58;;;5.67;89.67
25944;BME280;13742;49.306;8.636;2023-02-22T05:13:31;100304.70;;;5.65;89.80
25944;BME280;13742;49.306;8.636;2023-02-22T05:14:31;100300.44;;;5.65;89.41
25944;BME280;13742;49.306;8.636;2023-02-22T05:15:31;100298.81;;;5.67;89.70
25944;BME280;13742;49.306;8.636;2023-02-22T05:16:31;100295.47;;;5.68;89.79
25944;BME280;13742;49.306;8.636;2023-02-22T05:17:32;100299.53;;;5.71;90.63
25944;BME280;13742;49.306;8.636;2023-02-22T05:18:31;100299.30;;;5.68;89.78
25944;BME280;13742;49.306;8.636;2023-02-22T05:19:31;100296.23;;;5.68;89.83
25944;BME280;13742;49.306;8.636;2023-02-22T05:20:33;100294.63;;;5.67;89.37
25944;BME280;13742;49.306;8.636;2023-02-22T05:21:32;100294.66;;;5.68;89.72
25944;BME280;13742;49.306;8.636;2023-02-22T05:22:31;100297.30;;;5.70;89.81
25944;BME280;13742;49.306;8.636;2023-02-22T05:23:32;100296.59;;;5.70;89.49
25944;BME280;13742;49.306;8.636;2023-02-22T05:24:31;100296.59;;;5.71;90.06
25944;BME280;13742;49.306;8.636;2023-02-22T05:25:32;100294.63;;;5.71;89.77
25944;BME280;13742;49.306;8.636;2023-02-22T05:26:31;100297.30;;;5.71;89.43
25944;BME280;13742;49.306;8.636;2023-02-22T05:27:31;100297.63;;;5.71;89.25
25944;BME280;13742;49.306;8.636;2023-02-22T05:28:31;100297.88;;;5.68;89.48
25944;BME280;13742;49.306;8.636;2023-02-22T05:29:31;100294.02;;;5.67;89.76
25944;BME280;13742;49.306;8.636;2023-02-22T05:30:32;100292.61;;;5.66;89.28
25944;BME280;13742;49.306;8.636;2023-02-22T05:31:31;100292.46;;;5.65;89.64
25944;BME280;13742;49.306;8.636;2023-02-22T05:32:31;100291.97;;;5.65;89.17
25944;BME280;13742;49.306;8.636;2023-02-22T05:33:31;100291.05;;;5.64;89.60
25944;BME280;13742;49.306;8.636;2023-02-22T05:34:31;100291.32;;;5.62;90.36
25944;BME280;13742;49.306;8.636;2023-02-22T05:35:31;100288.56;;;5.62;89.68
25944;BME280;13742;49.306;8.636;2023-02-22T05:36:31;100286.31;;;5.61;90.08
25944;BME280;13742;49.306;8.636;2023-02-22T05:37:31;100288.69;;;5.61;89.76
25944;BME280;13742;49.306;8.636;2023-02-22T05:38:32;100282.79;;;5.61;89.90
25944;BME280;13742;49.306;8.636;2023-02-22T05:39:31;100285.06;;;5.63;90.77
25944;BME280;13742;49.306;8.636;2023-02-22T05:40:31;100279.40;;;5.62;90.64
25944;BME280;13742;49.306;8.636;2023-02-22T05:41:31;100281.75;;;5.63;90.41
25944;BME280;13742;49.306;8.636;2023-02-22T05:42:31;100282.48;;;5.62;89.89
25944;BME280;13742;49.306;8.636;2023-02-22T05:43:32;100283.66;;;5.62;89.89
25944;BME280;13742;49.306;8.636;2023-02-22T05:44:31;100284.70;;;5.63;90.33
25944;BME280;13742;49.306;8.636;2023-02-22T05:45:31;100287.00;;;5.63;89.94
25944;BME280;13742;49.306;8.636;2023-02-22T05:46:31;100282.15;;;5.62;90.28
25944;BME280;13742;49.306;8.636;2023-02-22T05:47:31;100287.95;;;5.61;90.68
25944;BME280;13742;49.306;8.636;2023-02-22T05:48:31;100286.48;;;5.62;90.94
25944;BME280;13742;49.306;8.636;2023-02-22T05:49:31;100285.58;;;5.61;90.73
25944;BME280;13742;49.306;8.636;2023-02-22T05:50:32;100287.42;;;5.62;91.09
25944;BME280;13742;49.306;8.636;2023-02-22T05:51:32;100289.25;;;5.60;91.17
25944;BME280;13742;49.306;8.636;2023-02-22T05:52:31;100286.84;;;5.58;91.02